Time;durP1;ratioP1;P1;durP2;ratioP2;P2;SDS_P1;SDS_P2;PMS_P1;PMS_P2;Temp;Humidity;BMP_temperature;BMP_pressure;BME280_temperature;BME280_humidity;BME280_pressure;Samples;Min_cycle;Max_cycle;Signal;HPM_P1;HPM_P2
2024/04/13 00:01:15;;;;;;;1.17;1.08;;;;;;;14.62;89.25;152361.03;11138410;26;20035;-73
2024/04/13 00:06:18;;;;;;;1.25;1.10;;;;;;;14.72;88.27;152384.34;11138638;26;20357;-73
2024/04/13 00:11:20;;;;;;;1.23;0.88;;;;;;;14.53;88.02;152336.44;11138605;26;20472;-73
2024/04/13 00:16:21;;;;;;;0.82;0.70;;;;;;;14.50;88.70;152328.66;11138235;26;20019;-73
2024/04/13 00:21:23;;;;;;;1.23;1.13;;;;;;;14.46;88.05;152319.53;11138270;26;20000;-73
2024/04/13 00:26:27;;;;;;;0.85;0.85;;;;;;;14.39;88.24;152302.72;11137750;26;20012;-72
2024/04/13 00:31:30;;;;;;;0.75;0.60;;;;;;;14.52;87.73;152333.81;11135991;26;20000;-74
2024/04/13 00:36:35;;;;;;;1.85;1.02;;;;;;;14.53;87.23;152336.44;11138032;26;20004;-75
2024/04/13 00:41:37;;;;;;;1.00;0.68;;;;;;;14.43;87.71;152311.75;11137967;26;20011;-74
2024/04/13 00:46:42;;;;;;;1.17;0.80;;;;;;;14.46;87.26;152319.53;11136629;26;20046;-74
2024/04/13 00:51:47;;;;;;;1.63;0.60;;;;;;;14.49;87.95;152326.09;11137865;26;20004;-74
2024/04/13 00:56:50;;;;;;;1.20;0.55;;;;;;;14.62;86.95;152361.03;11137954;26;20423;-75
2024/04/13 01:01:53;;;;;;;1.17;0.60;;;;;;;14.61;86.83;152357.19;11137751;26;19996;-74
2024/04/13 01:06:55;;;;;;;0.60;0.60;;;;;;;14.69;86.10;152376.56;11137822;26;20004;-74
2024/04/13 01:11:58;;;;;;;0.65;0.60;;;;;;;14.61;86.55;152358.47;11136529;26;20467;-75
2024/04/13 01:17:02;;;;;;;0.77;0.60;;;;;;;14.51;87.38;152331.25;11135403;26;20330;-75
2024/04/13 01:22:05;;;;;;;0.90;0.70;;;;;;;14.57;87.14;152348.09;11138032;26;20064;-74
2024/04/13 01:27:09;;;;;;;0.65;0.60;;;;;;;14.44;87.92;152313.09;11137907;26;20040;-74
2024/04/13 01:32:11;;;;;;;0.60;0.60;;;;;;;14.44;88.23;152313.09;11136823;26;20001;-74
2024/04/13 01:37:13;;;;;;;1.00;0.65;;;;;;;14.54;87.28;152340.31;11135900;26;20016;-75
2024/04/13 01:42:15;;;;;;;1.23;0.70;;;;;;;14.36;88.69;152293.66;11136200;26;20456;-72
2024/04/13 01:47:17;;;;;;;0.70;0.65;;;;;;;14.41;88.54;152306.59;11136193;26;20048;-73
2024/04/13 01:52:20;;;;;;;0.82;0.60;;;;;;;14.42;88.70;152309.19;11136375;26;20012;-73
2024/04/13 01:57:22;;;;;;;0.85;0.65;;;;;;;14.25;89.72;152265.16;11135048;26;20004;-74
2024/04/13 02:02:24;;;;;;;0.50;0.50;;;;;;;14.41;88.75;152306.59;11134874;26;20004;-75
2024/04/13 02:07:29;;;;;;;2.25;0.70;;;;;;;14.30;89.96;152278.13;11134825;26;20077;-74
2024/04/13 02:12:31;;;;;;;0.85;0.70;;;;;;;14.20;90.42;152252.22;11134796;26;20005;-75
2024/04/13 02:17:33;;;;;;;2.33;0.90;;;;;;;14.29;89.73;152276.81;11134244;26;20339;-75
2024/04/13 02:22:35;;;;;;;1.55;0.60;;;;;;;14.28;90.17;152272.94;11137296;26;20341;-75
2024/04/13 02:27:37;;;;;;;0.50;0.50;;;;;;;14.31;89.95;152282.00;11140369;26;20009;-74
2024/04/13 02:32:39;;;;;;;0.80;0.63;;;;;;;14.26;89.98;152267.78;11139590;26;20004;-73
2024/04/13 02:37:41;;;;;;;0.80;0.70;;;;;;;14.13;91.05;152235.41;11141318;26;20016;-75
2024/04/13 02:42:43;;;;;;;0.60;0.60;;;;;;;14.13;91.57;152236.69;11141022;26;20370;-74
2024/04/13 02:47:48;;;;;;;1.08;0.52;;;;;;;14.14;91.03;152238.00;11141432;26;20348;-75
2024/04/13 02:52:52;;;;;;;0.60;0.60;;;;;;;14.26;90.64;152269.06;11139240;26;20004;-74
2024/04/13 02:57:54;;;;;;;0.77;0.70;;;;;;;14.32;90.10;152283.28;11139392;26;20008;-74
2024/04/13 03:02:57;;;;;;;1.05;0.80;;;;;;;14.17;91.31;152244.47;11140379;26;20000;-74
2024/04/13 03:07:59;;;;;;;2.05;0.85;;;;;;;14.17;91.14;152245.78;11140358;26;20004;-74
2024/04/13 03:13:01;;;;;;;1.50;0.90;;;;;;;14.14;91.04;152238.00;11140427;26;20016;-75
2024/04/13 03:18:03;;;;;;;0.88;0.60;;;;;;;14.06;91.85;152218.56;11140222;26;20329;-74
2024/04/13 03:23:05;;;;;;;0.70;0.70;;;;;;;14.04;92.35;152212.09;11139959;26;20000;-74
2024/04/13 03:28:07;;;;;;;1.80;0.73;;;;;;;14.05;91.50;152215.97;11140085;26;20008;-74
2024/04/13 03:33:09;;;;;;;0.57;0.55;;;;;;;14.01;92.25;152204.31;11139546;26;20007;-75
2024/04/13 03:38:12;;;;;;;1.20;0.88;;;;;;;14.00;92.22;152203.03;11141075;26;20016;-75
2024/04/13 03:43:14;;;;;;;0.80;0.70;;;;;;;14.09;91.90;152225.03;11140585;26;20035;-75
2024/04/13 03:48:17;;;;;;;0.80;0.77;;;;;;;14.04;92.48;152213.41;11141010;26;20073;-75
2024/04/13 03:53:19;;;;;;;2.15;0.90;;;;;;;14.00;91.98;152201.75;11140481;26;20015;-75
2024/04/13 03:58:21;;;;;;;1.63;0.70;;;;;;;13.97;92.45;152195.25;11140433;26;20005;-76
2024/04/13 04:03:23;;;;;;;0.80;0.70;;;;;;;14.03;92.43;152210.81;11139437;26;20004;-76
2024/04/13 04:08:25;;;;;;;1.63;1.00;;;;;;;14.03;92.10;152210.81;11139369;26;20018;-76
2024/04/13 04:13:27;;;;;;;1.13;0.90;;;;;;;13.96;92.54;152191.38;11139260;26;20019;-76
2024/04/13 04:18:28;;;;;;;0.65;0.65;;;;;;;13.96;92.78;152192.69;11139592;26;20004;-76
2024/04/13 04:23:30;;;;;;;0.90;0.73;;;;;;;13.87;93.55;152169.38;11139996;26;20000;-76
2024/04/13 04:28:32;;;;;;;1.00;0.80;;;;;;;13.74;94.84;152137.03;11137643;26;20004;-76
2024/04/13 04:33:34;;;;;;;1.25;0.98;;;;;;;13.60;96.43;152102.09;11138781;26;20018;-76
2024/04/13 04:38:36;;;;;;;0.93;0.77;;;;;;;13.64;95.97;152111.16;11138702;26;20023;-76
2024/04/13 04:43:39;;;;;;;1.38;0.82;;;;;;;13.68;95.29;152120.16;11139195;26;20012;-76
2024/04/13 04:48:40;;;;;;;0.73;0.68;;;;;;;13.69;95.86;152122.81;11137931;26;20055;-75
2024/04/13 04:53:43;;;;;;;1.75;0.70;;;;;;;13.70;95.68;152125.38;11138923;26;20004;-76
2024/04/13 04:58:45;;;;;;;1.13;0.82;;;;;;;13.51;97.95;152078.78;11138458;26;20001;-75
2024/04/13 05:03:47;;;;;;;2.67;0.80;;;;;;;13.82;96.56;152157.75;11137706;26;20012;-76
2024/04/13 05:08:49;;;;;;;1.33;0.70;;;;;;;13.95;94.78;152188.81;11138367;26;20011;-76
2024/04/13 05:13:51;;;;;;;1.25;0.88;;;;;;;13.96;94.87;152192.69;11135647;26;19996;-75
2024/04/13 05:18:53;;;;;;;2.45;0.70;;;;;;;13.98;95.01;152197.84;11136708;26;20011;-77
2024/04/13 05:23:55;;;;;;;0.90;0.85;;;;;;;14.16;93.32;152241.84;11106634;26;20012;-76
2024/04/13 05:28:57;;;;;;;1.40;0.80;;;;;;;14.32;92.79;152283.28;11137106;26;20461;-76
2024/04/13 05:33:59;;;;;;;1.33;0.70;;;;;;;14.20;94.18;152252.22;11106396;26;20012;-76
2024/04/13 05:39:00;;;;;;;1.73;0.82;;;;;;;14.38;93.32;152298.81;11136749;26;20020;-76
2024/04/13 05:44:02;;;;;;;0.82;0.82;;;;;;;14.28;94.63;152274.22;11136847;26;20436;-76
2024/04/13 05:49:04;;;;;;;0.73;0.68;;;;;;;14.61;91.66;152357.19;11136698;26;20062;-75
2024/04/13 05:54:06;;;;;;;0.70;0.68;;;;;;;14.83;90.40;152412.81;11137001;26;20012;-75
2024/04/13 05:59:08;;;;;;;1.02;0.80;;;;;;;15.00;89.67;152455.56;11142254;26;20341;-75
2024/04/13 06:04:10;;;;;;;1.00;0.80;;;;;;;15.23;89.14;152513.84;11143104;26;20001;-75
2024/04/13 06:09:12;;;;;;;1.33;1.00;;;;;;;15.58;86.71;152604.59;11146491;26;20324;-75
2024/04/13 06:14:14;;;;;;;1.38;0.95;;;;;;;15.63;86.78;152616.28;11145193;26;20001;-75
2024/04/13 06:19:16;;;;;;;1.02;0.90;;;;;;;15.64;86.42;152620.19;11142130;26;20015;-75
2024/04/13 06:24:18;;;;;;;1.92;1.15;;;;;;;15.77;84.77;152652.59;11142102;26;20007;-75
2024/04/13 06:29:20;;;;;;;2.35;1.20;;;;;;;15.78;84.90;152653.88;11140359;26;20000;-75
2024/04/13 06:34:22;;;;;;;1.05;0.93;;;;;;;15.73;84.74;152642.22;11139848;26;19996;-74
2024/04/13 06:39:23;;;;;;;1.10;0.90;;;;;;;15.73;86.08;152640.94;11141992;26;20473;-75
2024/04/13 06:44:25;;;;;;;1.55;0.90;;;;;;;15.96;84.85;152699.25;11140319;26;20007;-75
2024/04/13 06:49:28;;;;;;;1.10;1.00;;;;;;;15.99;84.66;152708.34;11140116;26;20036;-75
2024/04/13 06:54:30;;;;;;;1.98;1.20;;;;;;;16.09;83.83;152734.25;11141345;26;20001;-75
2024/04/13 06:59:33;;;;;;;1.30;1.10;;;;;;;16.27;83.60;152778.31;11140872;26;20012;-75
2024/04/13 07:04:35;;;;;;;1.23;1.10;;;;;;;16.36;83.60;152802.97;11139392;26;20028;-75
2024/04/13 07:09:37;;;;;;;2.05;1.40;;;;;;;16.57;82.39;152856.13;11140001;26;20004;-74
2024/04/13 07:14:39;;;;;;;1.77;1.15;;;;;;;16.59;84.66;152861.31;11140452;26;20008;-75
2024/04/13 07:19:41;;;;;;;1.83;1.30;;;;;;;16.87;82.33;152932.72;11140476;26;20000;-75
2024/04/13 07:24:43;;;;;;;2.05;1.30;;;;;;;17.04;82.30;152975.47;11140534;26;20036;-74
2024/04/13 07:29:45;;;;;;;2.85;1.80;;;;;;;17.05;82.19;152976.81;11139321;26;20016;-74
2024/04/13 07:34:47;;;;;;;2.30;1.52;;;;;;;17.19;82.16;153011.84;11139120;26;20004;-74
2024/04/13 07:39:49;;;;;;;2.60;1.75;;;;;;;17.43;81.76;153072.81;11139160;26;20042;-73
2024/04/13 07:44:51;;;;;;;2.35;1.60;;;;;;;17.43;80.11;153072.81;11138661;26;20014;-74
2024/04/13 07:49:53;;;;;;;2.33;1.73;;;;;;;17.31;80.93;153042.94;11138998;26;20011;-74
2024/04/13 07:54:55;;;;;;;2.30;2.10;;;;;;;17.71;78.42;153145.50;11138842;26;19996;-74
2024/04/13 07:59:58;;;;;;;2.00;1.80;;;;;;;17.90;78.05;153194.84;11139424;26;20078;-74
2024/04/13 08:04:59;;;;;;;3.53;2.35;;;;;;;18.24;77.28;153280.56;11137193;26;20043;-76
2024/04/13 08:10:02;;;;;;;3.80;2.55;;;;;;;18.50;76.29;153345.44;11136708;26;19996;-75
2024/04/13 08:15:08;;;;;;;2.55;2.33;;;;;;;18.48;74.60;153340.25;11138419;26;20081;-73
2024/04/13 08:20:10;;;;;;;3.17;1.90;;;;;;;18.69;73.58;153394.88;11139146;26;20381;-74
2024/04/13 08:25:14;;;;;;;3.42;1.80;;;;;;;18.91;71.17;153450.72;11136932;26;20456;-74
2024/04/13 08:30:16;;;;;;;2.30;1.50;;;;;;;19.09;71.55;153497.47;11138991;26;20004;-74
2024/04/13 08:35:18;;;;;;;1.38;1.27;;;;;;;19.51;69.34;153603.97;11141174;26;20006;-75
2024/04/13 08:40:20;;;;;;;1.20;1.10;;;;;;;19.71;68.23;153653.44;11140583;26;20346;-76
2024/04/13 08:45:24;;;;;;;2.00;1.23;;;;;;;19.71;67.22;153653.44;11139838;26;19992;-75
2024/04/13 08:50:27;;;;;;;3.05;1.30;;;;;;;20.00;64.91;153727.50;11159415;26;20007;-73
2024/04/13 08:55:33;;;;;;;1.65;1.10;;;;;;;19.83;64.05;153684.59;11159547;26;20099;-74
2024/04/13 09:00:36;;;;;;;0.90;0.73;;;;;;;19.95;64.65;153715.81;11136151;26;20000;-77
2024/04/13 09:05:38;;;;;;;1.08;0.60;;;;;;;19.78;64.31;153671.59;11135477;26;20004;-72
2024/04/13 09:10:42;;;;;;;0.68;0.45;;;;;;;19.83;59.39;153685.94;11136156;26;20000;-76
2024/04/13 09:15:44;;;;;;;1.08;0.68;;;;;;;19.58;62.45;153622.19;11136930;26;20023;-75
2024/04/13 09:20:47;;;;;;;0.55;0.50;;;;;;;19.87;62.85;153696.28;11134941;26;20012;-70
2024/04/13 09:26:06;;;;;;;0.85;0.40;;;;;;;20.52;57.83;153860.16;11137086;26;20456;-72
2024/04/13 09:31:16;;;;;;;0.63;0.43;;;;;;;20.22;57.52;153784.69;11064070;26;20499;-71
2024/04/13 09:36:24;;;;;;;0.40;0.40;;;;;;;19.86;58.76;153692.41;11070400;26;20001;-70
2024/04/13 09:41:28;;;;;;;1.27;0.40;;;;;;;20.11;60.31;153757.41;11073158;26;20001;-70
2024/04/13 09:46:30;;;;;;;0.60;0.40;;;;;;;20.81;56.43;153934.31;11071721;26;20019;-71
2024/04/13 09:51:32;;;;;;;0.40;0.40;;;;;;;21.47;54.10;154103.47;11068933;26;20011;-69
2024/04/13 09:56:35;;;;;;;0.65;0.20;;;;;;;21.30;49.82;154059.19;11070414;26;20005;-71
2024/04/13 10:01:37;;;;;;;0.38;0.28;;;;;;;21.46;51.61;154099.53;11109577;26;20000;-71
2024/04/13 10:06:40;;;;;;;0.32;0.22;;;;;;;21.83;49.56;154195.84;11170308;26;20393;-71
2024/04/13 10:11:44;;;;;;;0.20;0.20;;;;;;;21.46;46.01;154100.81;11140614;26;20011;-71
2024/04/13 10:16:48;;;;;;;0.50;0.17;;;;;;;21.51;49.04;154112.53;11141625;26;20032;-71
2024/04/13 10:22:00;;;;;;;0.30;0.30;;;;;;;21.68;49.29;154156.78;11142441;26;20077;-70
2024/04/13 10:27:06;;;;;;;0.85;0.38;;;;;;;22.22;46.51;154293.47;11142576;26;20000;-70
2024/04/13 10:32:19;;;;;;;;;;;;;;;22.35;44.21;154328.63;11143209;26;20000;-70
2024/04/13 10:37:30;;;;;;;0.28;0.20;;;;;;;22.22;43.75;154293.47;11142389;26;19925;-70
2024/04/13 10:42:42;;;;;;;0.38;0.30;;;;;;;22.50;42.19;154366.41;11142775;26;20073;-69
2024/04/13 10:47:46;;;;;;;0.45;0.30;;;;;;;22.48;43.03;154359.88;11141948;26;20000;-70
2024/04/13 10:52:48;;;;;;;0.50;0.30;;;;;;;22.42;41.41;154346.88;11142220;26;20004;-69
2024/04/13 10:57:50;;;;;;;1.08;0.30;;;;;;;22.64;41.10;154401.56;11141687;26;20000;-70
2024/04/13 11:02:54;;;;;;;0.43;0.40;;;;;;;23.13;42.16;154527.91;11140375;26;20046;-69
2024/04/13 11:07:56;;;;;;;0.40;0.13;;;;;;;23.43;41.10;154603.47;11140166;26;20004;-71
2024/04/13 11:12:59;;;;;;;0.22;0.20;;;;;;;23.35;43.49;154582.63;11140604;26;20011;-70
2024/04/13 11:18:03;;;;;;;0.93;0.30;;;;;;;23.25;42.68;154557.88;11140653;26;20091;-70
2024/04/13 11:23:06;;;;;;;0.20;0.20;;;;;;;22.91;42.59;154470.63;11140490;26;20004;-70
2024/04/13 11:28:09;;;;;;;0.20;0.10;;;;;;;22.61;43.46;154395.03;11140505;26;20005;-69
2024/04/13 11:33:12;;;;;;;0.30;0.30;;;;;;;22.95;44.97;154479.75;11140140;26;20011;-69
2024/04/13 11:38:15;;;;;;;0.63;0.30;;;;;;;23.20;44.84;154543.53;11138436;26;20072;-69
2024/04/13 11:43:17;;;;;;;0.30;0.20;;;;;;;23.01;43.54;154495.34;11139833;26;20020;-70
2024/04/13 11:48:19;;;;;;;0.45;0.20;;;;;;;22.99;45.79;154491.47;11137689;26;20038;-71
2024/04/13 11:53:21;;;;;;;0.40;0.38;;;;;;;23.20;46.05;154543.53;11138974;26;20012;-71
2024/04/13 11:58:23;;;;;;;0.30;0.30;;;;;;;23.39;45.70;154594.34;11138689;26;20000;-70
2024/04/13 12:03:25;;;;;;;0.75;0.30;;;;;;;23.51;44.65;154624.34;11138684;26;20008;-70
2024/04/13 12:08:27;;;;;;;0.63;0.30;;;;;;;23.33;45.38;154577.41;11138420;26;20012;-69
2024/04/13 12:13:30;;;;;;;0.20;0.20;;;;;;;23.32;45.23;154576.09;11138531;26;20073;-70
2024/04/13 12:18:32;;;;;;;0.55;0.20;;;;;;;23.39;45.61;154594.34;11138193;26;20085;-70
2024/04/13 12:23:34;;;;;;;0.30;0.30;;;;;;;23.50;45.23;154620.41;11124736;26;20015;-70
2024/04/13 12:28:36;;;;;;;0.47;0.28;;;;;;;23.57;46.28;154638.66;11106667;26;20036;-70
2024/04/13 12:33:38;;;;;;;0.70;0.40;;;;;;;23.96;43.32;154739.03;11139366;26;20081;-70
2024/04/13 12:38:40;;;;;;;0.57;0.30;;;;;;;23.81;43.21;154699.91;11135624;26;20086;-71
2024/04/13 12:43:44;;;;;;;0.20;0.20;;;;;;;23.90;42.21;154724.66;11137641;26;20324;-70
2024/04/13 12:48:46;;;;;;;1.13;0.30;;;;;;;23.77;42.19;154689.50;11078530;26;20001;-71
2024/04/13 12:53:49;;;;;;;0.30;0.30;;;;;;;23.85;42.38;154711.63;11063263;26;19997;-70
2024/04/13 12:58:52;;;;;;;0.32;0.28;;;;;;;23.76;41.22;154688.19;11065144;26;20033;-70
2024/04/13 13:03:54;;;;;;;0.40;0.30;;;;;;;23.54;41.79;154632.13;11093686;26;20011;-71
2024/04/13 13:08:56;;;;;;;1.10;0.30;;;;;;;23.25;41.83;154556.59;11135286;26;20474;-71
2024/04/13 13:13:58;;;;;;;0.30;0.20;;;;;;;23.15;42.74;154531.81;11136165;26;20004;-71
2024/04/13 13:19:00;;;;;;;0.22;0.20;;;;;;;23.28;42.28;154565.66;11135459;26;20008;-69
2024/04/13 13:24:02;;;;;;;0.63;0.57;;;;;;;23.25;44.82;154557.88;11133907;26;20004;-69
2024/04/13 13:29:04;;;;;;;1.23;0.40;;;;;;;23.27;44.42;154561.78;11115212;26;19996;-71
2024/04/13 13:34:06;;;;;;;0.55;0.40;;;;;;;23.32;43.79;154574.81;11170778;26;20077;-70
2024/04/13 13:39:09;;;;;;;0.22;0.22;;;;;;;23.30;43.57;154570.91;11135536;26;20000;-72
2024/04/13 13:44:11;;;;;;;0.68;0.40;;;;;;;22.84;43.80;154452.31;11135352;26;20044;-69
2024/04/13 13:49:13;;;;;;;0.30;0.30;;;;;;;22.90;44.63;154468.03;11135070;26;20402;-69
2024/04/13 13:54:14;;;;;;;0.30;0.30;;;;;;;23.16;44.17;154535.75;11132811;26;20115;-69
2024/04/13 13:59:16;;;;;;;0.50;0.30;;;;;;;22.96;45.15;154483.63;11135326;26;20025;-70
2024/04/13 14:04:18;;;;;;;0.35;0.30;;;;;;;22.98;45.38;154488.88;11135876;26;20004;-69
2024/04/13 14:09:21;;;;;;;0.52;0.30;;;;;;;22.93;45.28;154475.81;11134730;26;20378;-69
2024/04/13 14:14:23;;;;;;;0.30;0.30;;;;;;;23.09;44.30;154517.50;11133923;26;20464;-69
2024/04/13 14:19:26;;;;;;;0.57;0.30;;;;;;;23.09;42.92;154516.19;11137730;26;20028;-69
2024/04/13 14:24:28;;;;;;;0.20;0.20;;;;;;;22.97;42.37;154486.22;11141279;26;20014;-69
2024/04/13 14:29:30;;;;;;;0.30;0.30;;;;;;;23.02;43.70;154497.94;11141202;26;20000;-68
2024/04/13 14:34:32;;;;;;;0.28;0.20;;;;;;;22.90;43.25;154468.03;11138871;26;20484;-71
2024/04/13 14:39:33;;;;;;;0.22;0.20;;;;;;;23.00;44.97;154494.06;11140650;26;20012;-69
2024/04/13 14:44:36;;;;;;;0.30;0.30;;;;;;;23.09;44.22;154517.50;11140554;26;20001;-69
2024/04/13 14:49:38;;;;;;;0.65;0.30;;;;;;;23.10;44.88;154520.09;11140747;26;20410;-69
2024/04/13 14:54:40;;;;;;;0.70;0.50;;;;;;;22.95;45.68;154481.03;11139724;26;20008;-69
2024/04/13 14:59:42;;;;;;;0.32;0.20;;;;;;;22.89;45.89;154465.38;11138286;26;19996;-69
2024/04/13 15:04:44;;;;;;;0.65;0.40;;;;;;;22.99;46.33;154491.47;11138541;26;20444;-69
2024/04/13 15:09:46;;;;;;;0.68;0.40;;;;;;;23.10;45.51;154518.78;11140451;26;20004;-70
2024/04/13 15:14:51;;;;;;;0.50;0.45;;;;;;;23.00;45.04;154492.75;11139925;26;20460;-69
2024/04/13 15:19:53;;;;;;;0.60;0.60;;;;;;;23.06;44.90;154508.38;11140251;26;19996;-69
2024/04/13 15:24:55;;;;;;;0.40;0.40;;;;;;;22.86;45.12;154458.84;11139610;26;20119;-70
2024/04/13 15:29:57;;;;;;;0.65;0.38;;;;;;;22.77;46.94;154434.13;11138310;26;20000;-69
2024/04/13 15:34:59;;;;;;;0.40;0.40;;;;;;;22.74;46.12;154426.28;11137772;26;20015;-73
2024/04/13 15:40:06;;;;;;;0.50;0.50;;;;;;;22.71;46.43;154418.47;11139292;26;20000;-69
2024/04/13 15:45:08;;;;;;;0.35;0.30;;;;;;;22.71;46.51;154419.81;11139449;26;20497;-69
2024/04/13 15:50:10;;;;;;;0.60;0.43;;;;;;;22.43;47.61;154348.16;11137248;26;20059;-71
2024/04/13 15:55:12;;;;;;;1.02;0.60;;;;;;;22.60;47.86;154392.44;11138929;26;20000;-69
2024/04/13 16:00:19;;;;;;;0.75;0.35;;;;;;;22.53;48.65;154372.88;11138739;26;20468;-70
2024/04/13 16:05:21;;;;;;;0.70;0.32;;;;;;;22.63;47.46;154400.25;11137244;26;20001;-69
2024/04/13 16:10:23;;;;;;;0.75;0.52;;;;;;;22.51;48.00;154367.72;11138673;26;20338;-69
2024/04/13 16:15:25;;;;;;;0.70;0.50;;;;;;;22.50;48.25;154366.41;11138083;26;20125;-70
2024/04/13 16:20:27;;;;;;;1.55;0.90;;;;;;;22.23;50.66;154297.41;11136363;26;20336;-70
2024/04/13 16:25:29;;;;;;;0.82;0.50;;;;;;;22.48;48.34;154359.88;11137300;26;20000;-71
2024/04/13 16:30:31;;;;;;;0.45;0.40;;;;;;;22.42;48.11;154345.56;11138146;26;19996;-71
2024/04/13 16:35:36;;;;;;;1.10;0.80;;;;;;;21.89;52.32;154211.44;11144164;26;20011;-70
2024/04/13 16:40:38;;;;;;;0.73;0.73;;;;;;;21.72;51.81;154165.91;11168148;26;20495;-72
2024/04/13 16:45:40;;;;;;;1.27;0.90;;;;;;;21.66;53.19;154152.91;11189637;26;20003;-71
2024/04/13 16:50:42;;;;;;;0.50;0.50;;;;;;;21.53;53.52;154117.75;11208524;26;20366;-72
2024/04/13 16:55:44;;;;;;;0.50;0.40;;;;;;;21.64;52.27;154146.38;11134866;26;20476;-71
2024/04/13 17:00:45;;;;;;;0.82;0.50;;;;;;;21.38;53.76;154080.00;11136035;26;20014;-71
2024/04/13 17:05:48;;;;;;;1.67;0.60;;;;;;;20.96;56.17;153972.00;11135970;26;20010;-71
2024/04/13 17:10:49;;;;;;;0.80;0.70;;;;;;;20.84;57.40;153942.06;11156824;26;20014;-71
2024/04/13 17:15:51;;;;;;;1.92;0.88;;;;;;;20.86;57.65;153948.59;11156341;26;20000;-71
2024/04/13 17:20:54;;;;;;;1.00;0.50;;;;;;;20.60;58.74;153882.28;11201003;26;19999;-72
2024/04/13 17:25:56;;;;;;;1.15;0.70;;;;;;;20.37;60.65;153823.72;11195782;26;20464;-72
2024/04/13 17:30:58;;;;;;;0.90;0.60;;;;;;;20.20;61.75;153779.53;11137565;26;19997;-72
2024/04/13 17:36:08;;;;;;;1.17;0.90;;;;;;;20.01;63.63;153730.09;11138447;26;20004;-72
2024/04/13 17:41:30;;;;;;;2.42;2.20;;;;;;;19.91;66.26;153705.41;11110602;26;20356;-71
2024/04/13 17:46:32;;;;;;;2.20;2.00;;;;;;;19.97;68.65;153721.03;11201571;26;20007;-71
2024/04/13 17:51:34;;;;;;;2.42;1.80;;;;;;;19.66;68.86;153641.75;11208542;26;20003;-71
2024/04/13 17:56:36;;;;;;;3.10;2.40;;;;;;;19.73;69.81;153659.91;11217183;26;20000;-71
2024/04/13 18:01:37;;;;;;;2.78;2.30;;;;;;;19.18;71.55;153519.56;11216524;26;20036;-72
2024/04/13 18:06:39;;;;;;;2.97;1.83;;;;;;;18.96;71.66;153463.69;11216868;26;20011;-72
2024/04/13 18:11:41;;;;;;;1.90;1.63;;;;;;;18.81;72.63;153424.69;11216863;26;19995;-72
2024/04/13 18:16:47;;;;;;;2.35;1.80;;;;;;;18.57;73.33;153364.94;11207469;26;20045;-71
2024/04/13 18:21:49;;;;;;;3.80;1.67;;;;;;;18.19;75.24;153267.53;11143381;26;20361;-72
2024/04/13 18:26:51;;;;;;;3.17;1.80;;;;;;;18.03;76.38;153226.03;11141968;26;20008;-72
2024/04/13 18:31:57;;;;;;;2.83;2.07;;;;;;;17.78;76.60;153162.41;11094244;26;20000;-71
2024/04/13 18:37:00;;;;;;;3.50;2.53;;;;;;;17.67;76.58;153133.81;11069449;26;20079;-71
2024/04/13 18:42:02;;;;;;;2.90;2.50;;;;;;;17.56;75.90;153106.53;11070804;26;20001;-73
2024/04/13 18:47:06;;;;;;;3.58;2.85;;;;;;;17.50;74.38;153092.28;11069943;26;20007;-72
2024/04/13 18:52:08;;;;;;;2.72;2.53;;;;;;;17.61;73.17;153120.81;11069860;26;20021;-71
2024/04/13 18:57:09;;;;;;;3.78;2.60;;;;;;;17.56;71.91;153106.53;11068842;26;20005;-72
2024/04/13 19:02:11;;;;;;;2.78;2.15;;;;;;;17.52;70.69;153097.44;11069059;26;20009;-72
2024/04/13 19:07:13;;;;;;;2.80;2.22;;;;;;;17.55;70.62;153103.97;11067283;26;20016;-71
2024/04/13 19:12:16;;;;;;;2.40;1.90;;;;;;;17.72;69.21;153148.09;11068897;26;20336;-72
2024/04/13 19:17:20;;;;;;;2.97;2.25;;;;;;;17.49;69.83;153089.69;11069479;26;20029;-72
2024/04/13 19:22:22;;;;;;;2.78;2.38;;;;;;;17.42;69.93;153070.22;11068418;26;19993;-71
2024/04/13 19:27:25;;;;;;;2.22;2.05;;;;;;;17.33;69.95;153048.16;11067796;26;20045;-72
2024/04/13 19:32:27;;;;;;;2.80;2.20;;;;;;;17.10;70.42;152991.06;11067989;26;20060;-71
2024/04/13 19:37:29;;;;;;;1.90;1.50;;;;;;;17.29;69.20;153037.78;11067609;26;20009;-72
2024/04/13 19:42:31;;;;;;;2.80;2.10;;;;;;;17.15;69.24;153002.75;11068278;26;20383;-71
2024/04/13 19:47:33;;;;;;;2.78;1.75;;;;;;;17.15;68.99;153002.75;11067947;26;20078;-73
2024/04/13 19:52:35;;;;;;;2.78;1.95;;;;;;;16.98;69.15;152959.94;11067963;26;20011;-72
2024/04/13 19:57:37;;;;;;;4.20;2.67;;;;;;;16.86;69.73;152930.09;11067471;26;20001;-71
2024/04/13 20:02:39;;;;;;;3.55;2.85;;;;;;;16.69;70.64;152884.63;11068186;26;20011;-72
2024/04/13 20:07:41;;;;;;;2.30;2.00;;;;;;;16.48;71.43;152831.50;11067350;26;20044;-70
2024/04/13 20:12:43;;;;;;;3.40;2.13;;;;;;;16.33;72.39;152795.16;11067054;26;20029;-72
2024/04/13 20:23:06;;;;;;;3.30;2.38;;;;;;;16.25;72.96;152773.16;11067866;26;20045;-72
2024/04/13 20:28:08;;;;;;;2.95;2.58;;;;;;;16.08;73.63;152730.38;11067045;26;20001;-72
2024/04/13 20:33:10;;;;;;;2.55;2.15;;;;;;;15.91;74.35;152686.28;11066884;26;20464;-71
2024/04/13 20:38:12;;;;;;;2.65;2.15;;;;;;;15.88;74.55;152681.09;11066752;26;20013;-73
2024/04/13 20:43:14;;;;;;;3.83;2.30;;;;;;;15.74;75.61;152644.81;11066580;26;20001;-72
2024/04/13 20:48:16;;;;;;;2.40;2.20;;;;;;;15.60;75.86;152609.78;11066819;26;20040;-72
2024/04/13 20:53:18;;;;;;;3.13;2.33;;;;;;;15.53;76.40;152590.31;11066246;26;20040;-71
2024/04/13 20:58:19;;;;;;;1.75;1.65;;;;;;;15.56;75.82;152599.41;11066167;26;20140;-71
2024/04/13 21:03:22;;;;;;;2.53;1.65;;;;;;;15.45;76.46;152570.91;11065437;26;20001;-71
2024/04/13 21:08:24;;;;;;;3.47;1.90;;;;;;;15.41;76.56;152560.53;11062762;26;20010;-71
2024/04/13 21:13:26;;;;;;;2.30;1.67;;;;;;;15.36;76.63;152547.53;11064824;26;20009;-72
2024/04/13 21:18:28;;;;;;;1.67;1.50;;;;;;;15.32;76.76;152537.22;11064410;26;20477;-72
2024/04/13 21:23:30;;;;;;;2.05;1.70;;;;;;;15.30;77.56;152532.03;11064433;26;20011;-71
2024/04/13 21:28:33;;;;;;;3.13;2.40;;;;;;;15.25;78.01;152520.34;11066218;26;20016;-72
2024/04/13 21:33:35;;;;;;;4.40;3.30;;;;;;;15.27;79.46;152524.22;11068693;26;20102;-71
2024/04/13 21:38:39;;;;;;;3.38;3.08;;;;;;;15.23;80.59;152513.84;11070419;26;20005;-72
2024/04/13 21:43:43;;;;;;;4.10;3.70;;;;;;;15.05;82.16;152469.84;11069935;26;20032;-71
2024/04/13 21:48:45;;;;;;;3.20;2.90;;;;;;;14.87;83.17;152423.19;11068576;26;20478;-71
2024/04/13 21:53:47;;;;;;;3.63;3.28;;;;;;;14.73;85.10;152386.94;11069905;26;20009;-71
2024/04/13 21:58:49;;;;;;;3.47;2.50;;;;;;;14.75;85.13;152393.44;11069591;26;20349;-70
2024/04/13 22:03:52;;;;;;;3.92;2.30;;;;;;;14.93;86.08;152437.47;11067821;26;20036;-72
2024/04/13 22:08:54;;;;;;;2.90;2.30;;;;;;;14.78;85.82;152399.88;11068068;26;20001;-72
2024/04/13 22:13:57;;;;;;;3.35;3.05;;;;;;;14.54;86.58;152339.03;11067599;26;20038;-72
2024/04/13 22:19:00;;;;;;;4.03;3.30;;;;;;;14.41;87.17;152305.31;11069645;26;20342;-71
2024/04/13 22:24:05;;;;;;;3.55;3.17;;;;;;;14.18;88.73;152247.06;11069078;26;20005;-71
2024/04/13 22:29:09;;;;;;;3.20;2.90;;;;;;;14.08;90.18;152223.75;11068872;26;20465;-70
2024/04/13 22:34:11;;;;;;;3.40;2.45;;;;;;;14.06;90.59;152218.56;11068725;26;20008;-71
2024/04/13 22:39:13;;;;;;;3.72;2.92;;;;;;;14.10;90.99;152228.91;11068133;26;20023;-72
2024/04/13 22:44:18;;;;;;;2.30;1.80;;;;;;;14.06;91.30;152217.25;11066692;26;20342;-71
2024/04/13 22:49:20;;;;;;;1.80;1.45;;;;;;;14.09;89.33;152226.34;11068415;26;20001;-71
2024/04/13 22:54:21;;;;;;;2.22;1.48;;;;;;;14.20;87.46;152253.50;11068611;26;20001;-71
2024/04/13 22:59:23;;;;;;;4.93;1.38;;;;;;;14.32;86.52;152283.28;11067836;26;20001;-70
2024/04/13 23:04:26;;;;;;;1.38;1.20;;;;;;;14.46;85.29;152319.53;11067722;26;20408;-70
2024/04/13 23:09:28;;;;;;;1.27;1.17;;;;;;;14.54;84.64;152339.03;11067420;26;20012;-71
2024/04/13 23:14:32;;;;;;;2.10;1.35;;;;;;;14.53;85.66;152337.72;11065817;26;20453;-70